createdAt,value
2022-08-26T00:02:15.833Z,24.11
2022-08-26T00:04:46.140Z,24.12
2022-08-26T00:07:12.916Z,24.04
2022-08-26T00:09:40.344Z,24.03
2022-08-26T00:12:07.825Z,23.99
2022-08-26T00:14:35.618Z,23.93
2022-08-26T00:17:02.128Z,23.93
2022-08-26T00:19:28.699Z,23.90
2022-08-26T00:21:55.338Z,23.85
2022-08-26T00:24:22.555Z,23.81
2022-08-26T00:26:50.501Z,23.78
2022-08-26T00:29:18.222Z,23.73
2022-08-26T00:31:45.404Z,23.68
2022-08-26T00:34:12.815Z,23.74
2022-08-26T00:36:40.941Z,23.66
2022-08-26T00:39:08.294Z,23.65
2022-08-26T00:41:36.004Z,23.52
2022-08-26T00:44:02.851Z,23.46
2022-08-26T00:46:35.094Z,23.38
2022-08-26T00:49:12.502Z,23.35
2022-08-26T00:51:47.579Z,23.36
2022-08-26T00:54:16.173Z,23.43
2022-08-26T00:57:21.937Z,23.40
2022-08-26T00:59:54.706Z,23.47
2022-08-26T01:02:21.828Z,23.52
2022-08-26T01:04:55.815Z,23.59
2022-08-26T01:07:27.812Z,23.60
2022-08-26T01:09:59.550Z,23.51
2022-08-26T01:12:28.830Z,23.48
2022-08-26T01:14:55.652Z,23.40
2022-08-26T01:17:22.370Z,23.31
2022-08-26T01:20:01.267Z,23.29
2022-08-26T01:22:41.784Z,23.31
2022-08-26T01:25:11.219Z,23.32
2022-08-26T01:27:37.733Z,23.31
2022-08-26T01:30:06.350Z,23.28
2022-08-26T01:32:33.780Z,23.29
2022-08-26T01:35:00.997Z,23.24
2022-08-26T01:37:34.661Z,23.20
2022-08-26T01:40:01.285Z,23.19
2022-08-26T01:42:28.656Z,23.17
2022-08-26T01:45:04.847Z,23.09
2022-08-26T01:47:33.177Z,22.87
2022-08-26T01:50:02.940Z,22.72
2022-08-26T01:52:33.252Z,22.71
2022-08-26T01:55:00.810Z,22.70
2022-08-26T01:57:28.008Z,22.53
2022-08-26T02:00:00.844Z,22.46
2022-08-26T02:02:27.870Z,22.42
2022-08-26T02:04:59.830Z,22.36
2022-08-26T02:07:27.845Z,22.30
2022-08-26T02:09:55.040Z,22.13
2022-08-26T02:12:21.802Z,22.11
2022-08-26T02:14:53.617Z,22.04
2022-08-26T02:17:23.665Z,22.09
2022-08-26T02:19:50.762Z,22.20
2022-08-26T02:22:22.391Z,22.23
2022-08-26T02:24:51.217Z,22.25
2022-08-26T02:27:21.928Z,22.27
2022-08-26T02:29:54.990Z,22.23
2022-08-26T02:32:21.506Z,22.25
2022-08-26T02:34:49.850Z,22.24
2022-08-26T02:37:17.699Z,22.29
2022-08-26T02:39:44.494Z,22.27
2022-08-26T02:42:11.533Z,22.18
2022-08-26T02:44:39.087Z,22.12
2022-08-26T02:47:07.070Z,22.03
2022-08-26T02:49:34.350Z,21.99
2022-08-26T02:52:01.975Z,22.11
2022-08-26T02:54:28.859Z,22.12
2022-08-26T02:56:56.345Z,22.09
2022-08-26T02:59:24.315Z,22.05
2022-08-26T03:01:51.935Z,22.08
2022-08-26T03:04:18.889Z,22.16
2022-08-26T03:06:52.662Z,22.18
2022-08-26T03:09:19.961Z,22.09
2022-08-26T03:11:47.225Z,22.04
2022-08-26T03:14:14.202Z,21.96
2022-08-26T03:16:41.243Z,21.86
2022-08-26T03:19:09.457Z,21.75
2022-08-26T03:21:37.629Z,21.69
2022-08-26T03:24:04.677Z,21.61
2022-08-26T03:26:31.623Z,21.47
2022-08-26T03:29:16.694Z,21.44
2022-08-26T03:31:43.301Z,21.36
2022-08-26T03:34:09.957Z,21.37
2022-08-26T03:36:38.639Z,21.47
2022-08-26T03:39:06.669Z,21.51
2022-08-26T03:41:36.815Z,21.51
2022-08-26T03:44:05.694Z,21.53
2022-08-26T03:46:33.496Z,21.57
2022-08-26T03:49:02.454Z,21.63
2022-08-26T03:51:29.661Z,21.57
2022-08-26T03:53:59.006Z,21.53
2022-08-26T03:56:25.538Z,21.44
2022-08-26T03:58:53.139Z,21.48
2022-08-26T04:01:20.106Z,21.49
2022-08-26T04:04:00.229Z,21.48
2022-08-26T04:06:36.625Z,21.50
2022-08-26T04:09:10.878Z,21.51
2022-08-26T04:11:43.289Z,21.47
2022-08-26T04:14:14.202Z,21.51
2022-08-26T04:16:44.528Z,21.48
2022-08-26T04:19:12.603Z,21.49
2022-08-26T04:21:40.515Z,21.51
2022-08-26T04:24:12.070Z,21.59
2022-08-26T04:26:42.555Z,21.68
2022-08-26T04:29:18.552Z,21.80
2022-08-26T04:31:45.999Z,21.90
2022-08-26T04:34:14.166Z,21.88
2022-08-26T04:36:41.064Z,21.89
2022-08-26T04:39:12.029Z,21.89
2022-08-26T04:41:39.348Z,21.89
2022-08-26T04:44:06.638Z,21.91
2022-08-26T04:46:33.149Z,21.91
2022-08-26T04:49:00.107Z,21.95
2022-08-26T04:51:29.445Z,22.00
2022-08-26T04:53:58.062Z,22.04
2022-08-26T04:56:33.879Z,22.05
2022-08-26T04:59:01.762Z,22.04
2022-08-26T05:01:29.915Z,22.05
2022-08-26T05:03:57.082Z,22.03
2022-08-26T05:06:25.947Z,22.03
2022-08-26T05:08:53.021Z,22.00
2022-08-26T05:11:20.266Z,22.02
2022-08-26T05:13:48.681Z,22.08
2022-08-26T05:16:16.595Z,22.13
2022-08-26T05:18:44.946Z,22.19
2022-08-26T05:21:21.509Z,22.24
2022-08-26T05:23:51.226Z,22.31
2022-08-26T05:26:22.855Z,22.24
2022-08-26T05:28:49.898Z,22.28
2022-08-26T05:31:19.914Z,22.31
2022-08-26T05:33:46.940Z,22.35
2022-08-26T05:36:17.428Z,22.39
2022-08-26T05:38:44.562Z,22.45
2022-08-26T05:41:21.616Z,22.50
2022-08-26T05:43:48.070Z,22.49
2022-08-26T05:46:15.487Z,22.41
2022-08-26T05:48:44.374Z,22.44
2022-08-26T05:51:12.057Z,22.51
2022-08-26T05:53:40.858Z,22.60
2022-08-26T05:56:11.797Z,22.67
2022-08-26T05:58:40.669Z,22.75
2022-08-26T06:01:20.308Z,22.74
2022-08-26T06:03:51.812Z,22.65
2022-08-26T06:06:33.812Z,22.66
2022-08-26T06:09:04.913Z,22.68
2022-08-26T06:11:32.961Z,22.81
2022-08-26T06:14:03.903Z,22.85
2022-08-26T06:16:32.569Z,22.85
2022-08-26T06:19:02.574Z,22.66
2022-08-26T06:21:32.458Z,22.84
2022-08-26T06:24:27.428Z,22.97
2022-08-26T06:26:56.467Z,22.99
2022-08-26T06:29:26.113Z,22.98
2022-08-26T06:31:54.374Z,23.07
2022-08-26T06:34:23.305Z,23.18
2022-08-26T06:36:58.562Z,23.17
2022-08-26T06:39:25.429Z,23.23
2022-08-26T06:41:52.042Z,23.26
2022-08-26T06:44:19.308Z,23.31
2022-08-26T06:46:46.069Z,23.40
2022-08-26T06:49:17.322Z,23.48
2022-08-26T06:51:43.987Z,23.54
2022-08-26T06:54:11.393Z,23.60
2022-08-26T06:56:41.866Z,23.67
2022-08-26T06:59:12.345Z,23.70
2022-08-26T07:01:45.656Z,23.70
2022-08-26T07:04:21.864Z,23.69
2022-08-26T07:06:52.781Z,23.80
2022-08-26T07:09:24.935Z,23.89
2022-08-26T07:11:52.958Z,23.89
2022-08-26T07:14:21.387Z,23.92
2022-08-26T07:16:49.773Z,23.92
2022-08-26T07:19:18.679Z,23.98
2022-08-26T07:21:57.373Z,24.06
2022-08-26T07:24:23.916Z,24.12
2022-08-26T07:26:59.151Z,24.19
2022-08-26T07:29:25.796Z,24.15
2022-08-26T07:31:52.254Z,24.26
2022-08-26T07:34:18.743Z,24.33
2022-08-26T07:36:45.260Z,24.39
2022-08-26T07:39:12.549Z,24.44
2022-08-26T07:41:39.448Z,24.48
2022-08-26T07:44:06.039Z,24.53
2022-08-26T07:46:35.249Z,24.55
2022-08-26T07:49:01.854Z,24.60
2022-08-26T07:51:28.449Z,24.53
2022-08-26T07:53:55.368Z,24.30
2022-08-26T07:56:23.342Z,24.30
2022-08-26T07:58:51.448Z,24.30
2022-08-26T08:01:23.774Z,24.26
2022-08-26T08:03:51.740Z,24.10
2022-08-26T08:06:20.004Z,24.12
2022-08-26T08:08:47.201Z,24.03
2022-08-26T08:11:14.106Z,24.13
2022-08-26T08:13:41.020Z,24.23
2022-08-26T08:16:08.597Z,24.30
2022-08-26T08:18:40.211Z,24.29
2022-08-26T08:21:24.189Z,24.31
2022-08-26T08:23:52.912Z,24.40
2022-08-26T08:26:20.074Z,24.45
2022-08-26T08:28:47.815Z,24.48
2022-08-26T08:34:14.721Z,24.55
2022-08-26T08:36:41.741Z,24.53
2022-08-26T08:39:08.268Z,24.58
2022-08-26T08:41:35.697Z,24.58
2022-08-26T08:44:02.763Z,24.61
2022-08-26T08:46:30.959Z,24.65
2022-08-26T08:48:59.994Z,24.51
2022-08-26T08:51:45.749Z,24.51
2022-08-26T08:54:13.224Z,24.66
2022-08-26T08:56:52.923Z,24.69
2022-08-26T08:59:26.353Z,24.76
2022-08-26T09:02:23.495Z,24.61
2022-08-26T09:05:28.510Z,24.70
2022-08-26T09:08:19.836Z,24.79
2022-08-26T09:10:53.163Z,24.91
2022-08-26T09:13:26.248Z,25.02
2022-08-26T09:16:09.962Z,25.09
2022-08-26T09:18:55.040Z,25.18
2022-08-26T09:21:23.823Z,25.24
2022-08-26T09:23:55.380Z,25.28
2022-08-26T09:26:39.699Z,25.33
2022-08-26T09:29:14.625Z,25.37
2022-08-26T09:31:41.394Z,25.45
2022-08-26T09:34:17.285Z,25.38
2022-08-26T09:36:44.193Z,25.37
2022-08-26T09:39:37.570Z,25.32
2022-08-26T09:42:12.766Z,25.21
2022-08-26T09:45:06.523Z,25.17
2022-08-26T09:47:36.139Z,25.29
2022-08-26T09:50:09.636Z,25.38
2022-08-26T09:52:36.882Z,25.55
2022-08-26T09:55:09.201Z,25.64
2022-08-26T09:57:44.835Z,25.77
2022-08-26T10:00:41.804Z,25.83
2022-08-26T10:03:23.918Z,25.83
2022-08-26T10:06:00.875Z,25.75
2022-08-26T10:08:40.862Z,25.62
2022-08-26T10:11:22.762Z,25.69
2022-08-26T10:13:56.819Z,25.73
2022-08-26T10:16:33.328Z,25.80
2022-08-26T10:19:01.647Z,25.84
2022-08-26T10:22:06.609Z,25.94
2022-08-26T10:24:48.314Z,25.90
2022-08-26T10:27:38.282Z,25.82
2022-08-26T10:30:20.056Z,25.80
2022-08-26T10:32:55.343Z,25.66
2022-08-26T10:35:22.191Z,25.73
2022-08-26T10:37:56.072Z,25.81
2022-08-26T10:40:30.639Z,25.86
2022-08-26T10:43:23.603Z,25.94
2022-08-26T10:46:06.923Z,25.97
2022-08-26T10:48:52.807Z,26.04
2022-08-26T10:51:26.824Z,26.07
2022-08-26T10:53:54.537Z,26.04
2022-08-26T10:56:51.809Z,26.08
2022-08-26T10:59:37.692Z,26.20
2022-08-26T11:02:11.571Z,26.22
2022-08-26T11:05:03.488Z,26.30
2022-08-26T11:07:32.942Z,25.73
2022-08-26T11:10:18.437Z,26.07
2022-08-26T11:12:45.443Z,26.27
2022-08-26T11:15:24.672Z,26.34
2022-08-26T11:17:51.369Z,26.40
2022-08-26T11:20:24.308Z,26.51
2022-08-26T11:22:52.922Z,26.72
2022-08-26T11:25:20.845Z,26.75
2022-08-26T11:27:50.809Z,26.84
2022-08-26T11:30:40.352Z,26.84
2022-08-26T11:33:08.172Z,26.68
2022-08-26T11:35:34.744Z,26.79
2022-08-26T11:38:42.802Z,26.90
2022-08-26T11:41:17.240Z,26.92
2022-08-26T11:43:45.288Z,26.78
2022-08-26T11:46:12.915Z,26.83
2022-08-26T11:48:42.019Z,26.79
2022-08-26T11:51:20.355Z,26.78
2022-08-26T11:53:47.419Z,26.81
2022-08-26T11:56:42.008Z,26.88
2022-08-26T11:59:11.711Z,26.97
2022-08-26T12:01:42.854Z,26.99
2022-08-26T12:04:13.689Z,26.96
2022-08-26T12:06:47.719Z,27.04
2022-08-26T12:09:28.952Z,27.13
2022-08-26T12:12:16.545Z,27.19
2022-08-26T12:14:43.936Z,27.22
2022-08-26T12:17:14.099Z,27.30
2022-08-26T12:19:40.896Z,27.32
2022-08-26T12:22:34.946Z,27.19
2022-08-26T12:25:07.002Z,27.24
2022-08-26T12:27:40.141Z,27.20
2022-08-26T12:30:14.581Z,27.25
2022-08-26T12:32:57.414Z,27.23
2022-08-26T12:35:25.512Z,27.28
2022-08-26T12:37:54.005Z,27.24
2022-08-26T12:40:33.439Z,27.24
2022-08-26T12:43:02.966Z,27.29
2022-08-26T12:45:30.836Z,27.29
2022-08-26T12:48:06.574Z,27.24
2022-08-26T12:50:36.514Z,27.17
2022-08-26T12:53:11.443Z,27.26
2022-08-26T12:55:45.571Z,27.22
2022-08-26T12:58:37.536Z,27.23
2022-08-26T13:01:04.166Z,27.30
2022-08-26T13:03:33.775Z,27.40
2022-08-26T13:06:29.749Z,27.47
2022-08-26T13:08:57.764Z,27.43
2022-08-26T13:11:30.396Z,27.38
2022-08-26T13:14:23.719Z,27.31
2022-08-26T13:16:52.157Z,27.33
2022-08-26T13:19:22.500Z,27.29
2022-08-26T13:21:54.760Z,27.30
2022-08-26T13:24:43.336Z,27.27
2022-08-26T13:27:12.576Z,27.11
2022-08-26T13:29:39.412Z,27.06
2022-08-26T13:32:07.757Z,27.08
2022-08-26T13:34:37.121Z,26.97
2022-08-26T13:37:04.742Z,27.02
2022-08-26T13:39:31.888Z,26.99
2022-08-26T13:41:58.476Z,27.08
2022-08-26T13:44:25.024Z,27.10
2022-08-26T13:46:51.756Z,27.12
2022-08-26T13:49:18.205Z,27.07
2022-08-26T13:51:44.855Z,27.21
2022-08-26T13:54:11.411Z,27.15
2022-08-26T13:56:38.168Z,27.26
2022-08-26T13:59:06.580Z,27.29
2022-08-26T14:01:34.413Z,27.23
2022-08-26T14:04:02.644Z,27.17
2022-08-26T14:06:29.223Z,27.11
2022-08-26T14:08:55.989Z,27.12
2022-08-26T14:11:24.791Z,27.10
2022-08-26T14:13:51.313Z,27.04
2022-08-26T14:16:27.497Z,27.08
2022-08-26T14:18:54.205Z,27.16
2022-08-26T14:21:21.276Z,27.20
2022-08-26T14:23:47.913Z,27.25
2022-08-26T14:26:27.791Z,27.10
2022-08-26T14:28:59.870Z,27.07
2022-08-26T14:31:29.198Z,27.01
2022-08-26T14:34:06.599Z,26.93
2022-08-26T14:36:33.571Z,27.00
2022-08-26T14:39:09.529Z,26.89
2022-08-26T14:41:42.782Z,27.00
2022-08-26T14:44:15.300Z,26.96
2022-08-26T14:46:49.552Z,26.95
2022-08-26T14:49:18.249Z,26.90
2022-08-26T14:51:44.876Z,26.85
2022-08-26T14:54:13.195Z,26.76
2022-08-26T14:56:42.634Z,26.69
2022-08-26T14:59:10.318Z,26.72
2022-08-26T15:01:37.015Z,26.73
2022-08-26T15:04:03.747Z,26.67
2022-08-26T15:06:31.725Z,26.59
2022-08-26T15:08:58.826Z,26.55
2022-08-26T15:11:25.355Z,26.54
2022-08-26T15:13:52.957Z,26.44
2022-08-26T15:16:19.816Z,26.39
2022-08-26T15:18:46.386Z,26.33
2022-08-26T15:21:12.985Z,26.26
2022-08-26T15:23:39.713Z,26.21
2022-08-26T15:26:10.789Z,26.26
2022-08-26T15:28:38.593Z,26.22
2022-08-26T15:31:06.624Z,26.23
2022-08-26T15:33:34.319Z,26.22
2022-08-26T15:36:02.059Z,26.13
2022-08-26T15:38:30.260Z,26.11
2022-08-26T15:41:01.015Z,26.11
2022-08-26T15:43:29.979Z,26.10
2022-08-26T15:45:57.721Z,26.06
2022-08-26T15:48:25.025Z,25.96
2022-08-26T15:50:51.581Z,25.88
2022-08-26T15:53:18.177Z,25.81
2022-08-26T15:55:44.787Z,25.66
2022-08-26T15:58:11.514Z,25.67
2022-08-26T16:00:39.389Z,25.57
2022-08-26T16:03:06.773Z,25.37
2022-08-26T16:05:37.967Z,25.41
2022-08-26T16:08:06.483Z,25.36
2022-08-26T16:10:38.314Z,25.37
2022-08-26T16:13:05.390Z,25.36
2022-08-26T16:15:32.921Z,25.35
2022-08-26T16:18:01.929Z,25.36
2022-08-26T16:20:29.516Z,25.40
2022-08-26T16:22:56.134Z,25.35
2022-08-26T16:25:22.674Z,25.33
2022-08-26T16:27:49.227Z,25.29
2022-08-26T16:30:16.547Z,25.35
2022-08-26T16:32:43.086Z,25.30
2022-08-26T16:35:09.726Z,25.26
2022-08-26T16:37:38.969Z,25.28
2022-08-26T16:40:07.212Z,25.20
2022-08-26T16:42:33.757Z,25.05
2022-08-26T16:45:00.234Z,24.98
2022-08-26T16:47:27.063Z,25.02
2022-08-26T16:49:53.617Z,24.95
2022-08-26T16:52:20.344Z,24.98
2022-08-26T16:54:47.403Z,24.98
2022-08-26T16:57:14.139Z,25.00
2022-08-26T16:59:41.554Z,24.99
2022-08-26T17:02:08.277Z,24.98
2022-08-26T17:04:34.758Z,24.90
2022-08-26T17:07:01.382Z,24.89
2022-08-26T17:09:28.010Z,24.88
2022-08-26T17:11:54.775Z,24.83
2022-08-26T17:14:21.288Z,24.79
2022-08-26T17:16:51.131Z,24.75
2022-08-26T17:19:19.190Z,24.77
2022-08-26T17:21:46.904Z,24.75
2022-08-26T17:24:14.355Z,24.69
2022-08-26T17:26:44.179Z,24.62
2022-08-26T17:29:15.202Z,24.74
2022-08-26T17:31:41.766Z,24.71
2022-08-26T17:34:10.115Z,24.65
2022-08-26T17:36:36.699Z,24.61
2022-08-26T17:39:03.750Z,24.58
2022-08-26T17:41:30.339Z,24.55
2022-08-26T17:43:57.111Z,24.51
2022-08-26T17:46:24.530Z,24.44
2022-08-26T17:48:51.217Z,24.44
2022-08-26T17:51:19.283Z,24.38
2022-08-26T17:53:46.664Z,24.40
2022-08-26T17:56:15.848Z,24.41
2022-08-26T17:58:51.020Z,24.43
2022-08-26T18:01:18.887Z,24.43
2022-08-26T18:03:45.492Z,24.39
2022-08-26T18:06:13.521Z,24.34
2022-08-26T18:08:41.637Z,24.35
2022-08-26T18:11:13.646Z,24.32
2022-08-26T18:13:45.845Z,24.21
2022-08-26T18:16:15.754Z,24.15
2022-08-26T18:18:43.049Z,24.13
2022-08-26T18:21:18.274Z,24.10
2022-08-26T18:23:46.945Z,24.12
2022-08-26T18:26:22.514Z,24.01
2022-08-26T18:28:49.495Z,24.06
2022-08-26T18:31:16.334Z,24.05
2022-08-26T18:33:43.084Z,24.01
2022-08-26T18:36:18.422Z,24.08
2022-08-26T18:38:46.223Z,24.05
2022-08-26T18:41:12.931Z,24.02
2022-08-26T18:43:39.422Z,23.97
2022-08-26T18:46:08.292Z,23.98
2022-08-26T18:48:36.695Z,23.98
2022-08-26T18:51:04.620Z,23.98
2022-08-26T18:53:31.582Z,23.99
2022-08-26T18:55:58.745Z,24.01
2022-08-26T18:58:25.692Z,23.97
2022-08-26T19:00:52.370Z,23.95
2022-08-26T19:03:19.794Z,23.96
2022-08-26T19:05:46.371Z,23.89
2022-08-26T19:08:12.959Z,23.86
2022-08-26T19:10:41.449Z,23.82
2022-08-26T19:13:09.850Z,23.80
2022-08-26T19:15:44.458Z,23.78
2022-08-26T19:18:14.427Z,23.77
2022-08-26T19:20:46.493Z,23.76
2022-08-26T19:23:30.987Z,23.74
2022-08-26T19:25:59.434Z,23.71
2022-08-26T19:28:25.962Z,23.73
2022-08-26T19:30:53.332Z,23.72
2022-08-26T19:33:20.158Z,23.60
2022-08-26T19:35:46.677Z,23.62
2022-08-26T19:38:14.004Z,23.55
2022-08-26T19:40:40.895Z,23.55
2022-08-26T19:43:07.416Z,23.54
2022-08-26T19:45:34.906Z,23.52
2022-08-26T19:48:02.976Z,23.43
2022-08-26T19:50:32.213Z,23.39
2022-08-26T19:52:59.856Z,23.31
2022-08-26T19:55:28.255Z,23.34
2022-08-26T19:57:54.827Z,23.33
2022-08-26T20:00:25.498Z,23.27
2022-08-26T20:02:52.540Z,23.26
2022-08-26T20:05:22.007Z,23.20
2022-08-26T20:07:49.828Z,23.16
2022-08-26T20:10:18.557Z,23.10
2022-08-26T20:12:45.489Z,23.04
2022-08-26T20:15:13.112Z,23.06
2022-08-26T20:17:40.674Z,23.06
2022-08-26T20:20:32.858Z,22.97
2022-08-26T20:23:01.837Z,22.98
2022-08-26T20:25:28.489Z,22.92
2022-08-26T20:27:55.000Z,22.89
2022-08-26T20:30:21.922Z,22.87
2022-08-26T20:32:48.467Z,22.85
2022-08-26T20:35:15.111Z,22.73
2022-08-26T20:37:42.510Z,22.59
2022-08-26T20:40:12.226Z,22.61
2022-08-26T20:42:38.834Z,22.56
2022-08-26T20:45:08.009Z,22.51
2022-08-26T20:47:34.570Z,22.39
2022-08-26T20:50:02.531Z,22.42
2022-08-26T20:52:29.153Z,22.37
2022-08-26T20:54:55.661Z,22.31
2022-08-26T20:57:22.321Z,22.25
2022-08-26T20:59:49.077Z,22.21
2022-08-26T21:02:16.211Z,22.22
2022-08-26T21:04:42.806Z,22.21
2022-08-26T21:07:09.504Z,22.11
2022-08-26T21:09:36.068Z,22.13
2022-08-26T21:12:04.038Z,22.08
2022-08-26T21:14:30.528Z,22.01
2022-08-26T21:16:57.118Z,21.97
2022-08-26T21:19:23.681Z,21.90
2022-08-26T21:21:50.560Z,21.82
2022-08-26T21:24:17.492Z,21.80
2022-08-26T21:26:44.557Z,21.72
2022-08-26T21:29:12.067Z,21.67
2022-08-26T21:31:43.533Z,21.64
2022-08-26T21:34:12.896Z,21.67
2022-08-26T21:36:39.404Z,21.69
2022-08-26T21:39:10.727Z,21.66
2022-08-26T21:41:38.847Z,21.58
2022-08-26T21:44:05.303Z,21.51
2022-08-26T21:46:32.024Z,21.51
2022-08-26T21:49:01.534Z,21.40
2022-08-26T21:51:30.912Z,21.38
2022-08-26T21:53:59.018Z,21.37
2022-08-26T21:56:28.082Z,21.34
2022-08-26T21:58:56.362Z,21.31
2022-08-26T22:01:26.048Z,21.30
2022-08-26T22:03:53.405Z,21.30
2022-08-26T22:06:22.574Z,21.30
2022-08-26T22:08:49.732Z,21.21
2022-08-26T22:11:16.872Z,21.16
2022-08-26T22:13:44.317Z,21.20
2022-08-26T22:16:11.707Z,21.19
2022-08-26T22:18:39.256Z,21.13
2022-08-26T22:21:08.360Z,21.14
2022-08-26T22:23:36.339Z,21.11
2022-08-26T22:26:04.036Z,21.08
2022-08-26T22:28:31.128Z,21.05
2022-08-26T22:30:57.908Z,20.96
2022-08-26T22:33:24.731Z,21.00
2022-08-26T22:35:52.688Z,20.97
2022-08-26T22:38:20.448Z,20.92
2022-08-26T22:40:55.283Z,20.88
2022-08-26T22:43:23.552Z,20.89
2022-08-26T22:45:51.198Z,20.92
2022-08-26T22:48:20.910Z,20.87
2022-08-26T22:50:48.293Z,20.85
2022-08-26T22:53:16.440Z,20.77
2022-08-26T22:55:43.821Z,20.74
2022-08-26T22:58:12.404Z,20.73
2022-08-26T23:00:39.980Z,20.66
2022-08-26T23:03:08.065Z,20.68
2022-08-26T23:05:35.770Z,20.70
2022-08-26T23:08:02.948Z,20.69
2022-08-26T23:10:29.949Z,20.68
2022-08-26T23:12:57.463Z,20.61
2022-08-26T23:15:24.497Z,20.57
2022-08-26T23:17:58.320Z,20.58
2022-08-26T23:20:27.576Z,20.51
2022-08-26T23:22:54.903Z,20.54
2022-08-26T23:25:22.419Z,20.48
2022-08-26T23:27:51.626Z,20.50
2022-08-26T23:30:22.853Z,20.46
2022-08-26T23:32:50.004Z,20.45
2022-08-26T23:35:20.106Z,20.41
2022-08-26T23:37:48.083Z,20.40
2022-08-26T23:40:19.313Z,20.39
2022-08-26T23:42:45.914Z,20.42
2022-08-26T23:45:13.701Z,20.43
2022-08-26T23:47:41.259Z,20.41
2022-08-26T23:50:08.595Z,20.43
2022-08-26T23:53:13.483Z,20.48
2022-08-26T23:55:39.982Z,20.51
2022-08-26T23:58:06.827Z,20.52
